sensor_id;sensor_type;location;lat;lon;timestamp;P1;durP1;ratioP1;P2;durP2;ratioP2
13197;SDS011;6664;52.514;13.440;2023-03-11T00:00:53;10.00;;;6.30;;
13197;SDS011;6664;52.514;13.440;2023-03-11T00:03:41;8.57;;;5.37;;
13197;SDS011;6664;52.514;13.440;2023-03-11T00:06:26;9.30;;;5.90;;
13197;SDS011;6664;52.514;13.440;2023-03-11T00:09:12;10.00;;;5.20;;
13197;SDS011;6664;52.514;13.440;2023-03-11T00:11:58;9.23;;;6.67;;
13197;SDS011;6664;52.514;13.440;2023-03-11T00:14:44;6.90;;;5.37;;
13197;SDS011;6664;52.514;13.440;2023-03-11T00:17:30;8.20;;;5.83;;
13197;SDS011;6664;52.514;13.440;2023-03-11T00:20:26;7.60;;;5.70;;
13197;SDS011;6664;52.514;13.440;2023-03-11T00:23:13;7.50;;;5.70;;
13197;SDS011;6664;52.514;13.440;2023-03-11T00:25:59;8.63;;;6.67;;
13197;SDS011;6664;52.514;13.440;2023-03-11T00:28:47;7.97;;;6.00;;
13197;SDS011;6664;52.514;13.440;2023-03-11T00:31:34;8.40;;;6.20;;
13197;SDS011;6664;52.514;13.440;2023-03-11T00:34:20;7.90;;;5.60;;
13197;SDS011;6664;52.514;13.440;2023-03-11T00:37:05;7.67;;;4.97;;
13197;SDS011;6664;52.514;13.440;2023-03-11T00:39:51;8.20;;;5.43;;
13197;SDS011;6664;52.514;13.440;2023-03-11T00:42:37;7.97;;;5.20;;
13197;SDS011;6664;52.514;13.440;2023-03-11T00:45:23;6.77;;;4.53;;
13197;SDS011;6664;52.514;13.440;2023-03-11T00:48:13;7.20;;;5.00;;
13197;SDS011;6664;52.514;13.440;2023-03-11T00:50:59;9.10;;;4.60;;
13197;SDS011;6664;52.514;13.440;2023-03-11T00:53:44;6.37;;;4.80;;
13197;SDS011;6664;52.514;13.440;2023-03-11T00:56:30;6.60;;;4.90;;
13197;SDS011;6664;52.514;13.440;2023-03-11T00:59:18;6.70;;;5.07;;
13197;SDS011;6664;52.514;13.440;2023-03-11T01:02:04;7.83;;;4.57;;
13197;SDS011;6664;52.514;13.440;2023-03-11T01:04:52;6.97;;;5.10;;
13197;SDS011;6664;52.514;13.440;2023-03-11T01:07:39;8.57;;;5.50;;
13197;SDS011;6664;52.514;13.440;2023-03-11T01:10:28;8.37;;;6.33;;
13197;SDS011;6664;52.514;13.440;2023-03-11T01:13:14;10.53;;;6.27;;
13197;SDS011;6664;52.514;13.440;2023-03-11T01:16:00;9.13;;;7.27;;
13197;SDS011;6664;52.514;13.440;2023-03-11T01:18:46;7.47;;;6.20;;
13197;SDS011;6664;52.514;13.440;2023-03-11T01:21:31;9.90;;;7.20;;
13197;SDS011;6664;52.514;13.440;2023-03-11T01:24:17;9.80;;;7.13;;
13197;SDS011;6664;52.514;13.440;2023-03-11T01:27:04;10.17;;;7.23;;
13197;SDS011;6664;52.514;13.440;2023-03-11T01:29:50;9.27;;;6.93;;
13197;SDS011;6664;52.514;13.440;2023-03-11T01:32:35;10.63;;;7.40;;
13197;SDS011;6664;52.514;13.440;2023-03-11T01:35:22;8.67;;;5.70;;
13197;SDS011;6664;52.514;13.440;2023-03-11T01:38:09;8.80;;;6.20;;
13197;SDS011;6664;52.514;13.440;2023-03-11T01:40:55;8.57;;;6.17;;
13197;SDS011;6664;52.514;13.440;2023-03-11T01:46:34;7.90;;;5.00;;
13197;SDS011;6664;52.514;13.440;2023-03-11T01:49:43;4.43;;;4.03;;
13197;SDS011;6664;52.514;13.440;2023-03-11T01:52:29;7.53;;;5.20;;
13197;SDS011;6664;52.514;13.440;2023-03-11T01:55:15;6.23;;;4.73;;
13197;SDS011;6664;52.514;13.440;2023-03-11T01:58:03;6.03;;;3.90;;
13197;SDS011;6664;52.514;13.440;2023-03-11T02:00:52;2.43;;;2.23;;
13197;SDS011;6664;52.514;13.440;2023-03-11T02:03:40;3.40;;;2.90;;
13197;SDS011;6664;52.514;13.440;2023-03-11T02:06:27;4.27;;;3.00;;
13197;SDS011;6664;52.514;13.440;2023-03-11T02:09:12;3.67;;;2.57;;
13197;SDS011;6664;52.514;13.440;2023-03-11T02:11:58;2.00;;;1.90;;
13197;SDS011;6664;52.514;13.440;2023-03-11T02:14:44;2.37;;;2.17;;
13197;SDS011;6664;52.514;13.440;2023-03-11T02:17:33;2.37;;;2.20;;
13197;SDS011;6664;52.514;13.440;2023-03-11T02:23:26;1.67;;;1.23;;
13197;SDS011;6664;52.514;13.440;2023-03-11T02:26:27;3.30;;;1.13;;
13197;SDS011;6664;52.514;13.440;2023-03-11T02:29:20;1.10;;;1.03;;
13197;SDS011;6664;52.514;13.440;2023-03-11T02:32:07;1.57;;;1.47;;
13197;SDS011;6664;52.514;13.440;2023-03-11T02:34:54;1.07;;;1.07;;
13197;SDS011;6664;52.514;13.440;2023-03-11T02:37:45;4.37;;;1.40;;
13197;SDS011;6664;52.514;13.440;2023-03-11T02:40:45;1.00;;;1.00;;
13197;SDS011;6664;52.514;13.440;2023-03-11T02:43:40;1.20;;;1.20;;
13197;SDS011;6664;52.514;13.440;2023-03-11T02:46:29;1.17;;;1.17;;
13197;SDS011;6664;52.514;13.440;2023-03-11T02:49:15;1.20;;;1.10;;
13197;SDS011;6664;52.514;13.440;2023-03-11T02:52:03;1.50;;;1.50;;
13197;SDS011;6664;52.514;13.440;2023-03-11T02:54:49;1.53;;;1.43;;
13197;SDS011;6664;52.514;13.440;2023-03-11T02:57:37;1.37;;;1.27;;
13197;SDS011;6664;52.514;13.440;2023-03-11T03:00:23;1.20;;;1.20;;
13197;SDS011;6664;52.514;13.440;2023-03-11T03:03:08;3.90;;;1.33;;
13197;SDS011;6664;52.514;13.440;2023-03-11T03:05:54;1.73;;;1.63;;
13197;SDS011;6664;52.514;13.440;2023-03-11T03:08:42;1.30;;;1.30;;
13197;SDS011;6664;52.514;13.440;2023-03-11T03:11:28;2.00;;;1.90;;
13197;SDS011;6664;52.514;13.440;2023-03-11T03:14:13;1.60;;;1.50;;
13197;SDS011;6664;52.514;13.440;2023-03-11T03:16:59;1.50;;;1.43;;
13197;SDS011;6664;52.514;13.440;2023-03-11T03:19:45;1.57;;;1.47;;
13197;SDS011;6664;52.514;13.440;2023-03-11T03:22:30;1.73;;;1.63;;
13197;SDS011;6664;52.514;13.440;2023-03-11T03:25:19;1.80;;;1.67;;
13197;SDS011;6664;52.514;13.440;2023-03-11T03:28:04;2.03;;;1.93;;
13197;SDS011;6664;52.514;13.440;2023-03-11T03:30:50;1.60;;;1.50;;
13197;SDS011;6664;52.514;13.440;2023-03-11T03:33:38;1.90;;;1.67;;
13197;SDS011;6664;52.514;13.440;2023-03-11T03:36:24;1.70;;;1.60;;
13197;SDS011;6664;52.514;13.440;2023-03-11T03:39:09;2.60;;;1.73;;
13197;SDS011;6664;52.514;13.440;2023-03-11T03:41:55;1.90;;;1.80;;
13197;SDS011;6664;52.514;13.440;2023-03-11T03:44:40;1.87;;;1.70;;
13197;SDS011;6664;52.514;13.440;2023-03-11T03:47:26;1.73;;;1.63;;
13197;SDS011;6664;52.514;13.440;2023-03-11T03:50:11;1.30;;;1.20;;
13197;SDS011;6664;52.514;13.440;2023-03-11T03:52:57;2.07;;;1.97;;
13197;SDS011;6664;52.514;13.440;2023-03-11T03:55:43;2.90;;;2.67;;
13197;SDS011;6664;52.514;13.440;2023-03-11T03:58:28;3.23;;;2.93;;
13197;SDS011;6664;52.514;13.440;2023-03-11T04:01:16;2.20;;;2.00;;
13197;SDS011;6664;52.514;13.440;2023-03-11T04:04:01;2.13;;;1.93;;
13197;SDS011;6664;52.514;13.440;2023-03-11T04:06:47;2.50;;;2.30;;
13197;SDS011;6664;52.514;13.440;2023-03-11T04:09:33;3.93;;;3.00;;
13197;SDS011;6664;52.514;13.440;2023-03-11T04:12:19;3.40;;;1.90;;
13197;SDS011;6664;52.514;13.440;2023-03-11T04:15:07;3.10;;;2.80;;
13197;SDS011;6664;52.514;13.440;2023-03-11T04:17:53;2.60;;;2.40;;
13197;SDS011;6664;52.514;13.440;2023-03-11T04:20:40;2.30;;;2.10;;
13197;SDS011;6664;52.514;13.440;2023-03-11T04:23:26;2.13;;;2.03;;
13197;SDS011;6664;52.514;13.440;2023-03-11T04:26:12;2.93;;;2.73;;
13197;SDS011;6664;52.514;13.440;2023-03-11T04:28:57;2.63;;;2.40;;
13197;SDS011;6664;52.514;13.440;2023-03-11T04:31:43;3.10;;;2.80;;
13197;SDS011;6664;52.514;13.440;2023-03-11T04:34:29;3.23;;;1.90;;
13197;SDS011;6664;52.514;13.440;2023-03-11T04:37:14;2.40;;;2.20;;
13197;SDS011;6664;52.514;13.440;2023-03-11T04:40:00;2.30;;;2.10;;
13197;SDS011;6664;52.514;13.440;2023-03-11T04:42:45;2.20;;;2.00;;
13197;SDS011;6664;52.514;13.440;2023-03-11T04:45:31;4.20;;;2.63;;
13197;SDS011;6664;52.514;13.440;2023-03-11T04:48:16;2.57;;;2.37;;
13197;SDS011;6664;52.514;13.440;2023-03-11T04:51:02;2.17;;;1.97;;
13197;SDS011;6664;52.514;13.440;2023-03-11T04:53:48;2.10;;;1.90;;
13197;SDS011;6664;52.514;13.440;2023-03-11T04:56:34;2.00;;;1.90;;
13197;SDS011;6664;52.514;13.440;2023-03-11T04:59:19;2.67;;;2.03;;
13197;SDS011;6664;52.514;13.440;2023-03-11T05:02:05;2.47;;;2.27;;
13197;SDS011;6664;52.514;13.440;2023-03-11T05:04:50;2.53;;;2.13;;
13197;SDS011;6664;52.514;13.440;2023-03-11T05:07:36;2.00;;;1.90;;
13197;SDS011;6664;52.514;13.440;2023-03-11T05:10:22;2.40;;;2.27;;
13197;SDS011;6664;52.514;13.440;2023-03-11T05:13:08;2.13;;;2.00;;
13197;SDS011;6664;52.514;13.440;2023-03-11T05:15:53;2.40;;;2.20;;
13197;SDS011;6664;52.514;13.440;2023-03-11T05:18:40;1.73;;;1.53;;
13197;SDS011;6664;52.514;13.440;2023-03-11T05:21:27;1.60;;;1.50;;
13197;SDS011;6664;52.514;13.440;2023-03-11T05:24:13;2.77;;;2.57;;
13197;SDS011;6664;52.514;13.440;2023-03-11T05:27:01;2.43;;;1.80;;
13197;SDS011;6664;52.514;13.440;2023-03-11T05:29:47;2.47;;;2.27;;
13197;SDS011;6664;52.514;13.440;2023-03-11T05:32:32;2.43;;;1.83;;
13197;SDS011;6664;52.514;13.440;2023-03-11T05:35:17;2.57;;;2.37;;
13197;SDS011;6664;52.514;13.440;2023-03-11T05:38:03;2.23;;;1.77;;
13197;SDS011;6664;52.514;13.440;2023-03-11T05:40:48;2.50;;;2.30;;
13197;SDS011;6664;52.514;13.440;2023-03-11T05:43:36;2.33;;;2.13;;
13197;SDS011;6664;52.514;13.440;2023-03-11T05:46:21;2.30;;;2.10;;
13197;SDS011;6664;52.514;13.440;2023-03-11T05:49:07;3.60;;;3.30;;
13197;SDS011;6664;52.514;13.440;2023-03-11T05:51:53;2.30;;;2.10;;
13197;SDS011;6664;52.514;13.440;2023-03-11T05:54:43;2.93;;;2.17;;
13197;SDS011;6664;52.514;13.440;2023-03-11T05:57:28;2.57;;;2.30;;
13197;SDS011;6664;52.514;13.440;2023-03-11T06:00:13;2.43;;;2.23;;
13197;SDS011;6664;52.514;13.440;2023-03-11T06:02:59;2.30;;;2.10;;
13197;SDS011;6664;52.514;13.440;2023-03-11T06:05:45;3.47;;;3.17;;
13197;SDS011;6664;52.514;13.440;2023-03-11T06:08:32;2.67;;;2.47;;
13197;SDS011;6664;52.514;13.440;2023-03-11T06:11:20;3.60;;;3.03;;
13197;SDS011;6664;52.514;13.440;2023-03-11T06:14:13;2.70;;;2.50;;
13197;SDS011;6664;52.514;13.440;2023-03-11T06:16:58;2.97;;;2.77;;
13197;SDS011;6664;52.514;13.440;2023-03-11T06:19:44;2.30;;;2.20;;
13197;SDS011;6664;52.514;13.440;2023-03-11T06:22:34;4.43;;;3.40;;
13197;SDS011;6664;52.514;13.440;2023-03-11T06:25:23;6.83;;;3.43;;
13197;SDS011;6664;52.514;13.440;2023-03-11T06:28:09;4.00;;;2.90;;
13197;SDS011;6664;52.514;13.440;2023-03-11T06:30:55;2.33;;;2.23;;
13197;SDS011;6664;52.514;13.440;2023-03-11T06:33:42;3.37;;;3.07;;
13197;SDS011;6664;52.514;13.440;2023-03-11T06:36:28;2.43;;;2.23;;
13197;SDS011;6664;52.514;13.440;2023-03-11T06:39:14;4.17;;;3.70;;
13197;SDS011;6664;52.514;13.440;2023-03-11T06:42:00;4.00;;;3.57;;
13197;SDS011;6664;52.514;13.440;2023-03-11T06:44:46;5.20;;;3.87;;
13197;SDS011;6664;52.514;13.440;2023-03-11T06:47:32;3.80;;;3.47;;
13197;SDS011;6664;52.514;13.440;2023-03-11T06:50:18;3.90;;;3.50;;
13197;SDS011;6664;52.514;13.440;2023-03-11T06:53:03;5.10;;;3.17;;
13197;SDS011;6664;52.514;13.440;2023-03-11T06:56:03;4.87;;;3.17;;
13197;SDS011;6664;52.514;13.440;2023-03-11T06:58:49;3.03;;;2.77;;
13197;SDS011;6664;52.514;13.440;2023-03-11T07:01:34;5.00;;;3.70;;
13197;SDS011;6664;52.514;13.440;2023-03-11T07:04:21;5.60;;;3.73;;
13197;SDS011;6664;52.514;13.440;2023-03-11T07:07:10;3.40;;;3.10;;
13197;SDS011;6664;52.514;13.440;2023-03-11T07:09:55;3.50;;;3.20;;
13197;SDS011;6664;52.514;13.440;2023-03-11T07:12:46;7.20;;;3.70;;
13197;SDS011;6664;52.514;13.440;2023-03-11T07:15:32;5.17;;;3.73;;
13197;SDS011;6664;52.514;13.440;2023-03-11T07:18:19;3.17;;;2.87;;
13197;SDS011;6664;52.514;13.440;2023-03-11T07:21:07;3.67;;;3.37;;
13197;SDS011;6664;52.514;13.440;2023-03-11T07:23:54;4.20;;;3.80;;
13197;SDS011;6664;52.514;13.440;2023-03-11T07:26:41;5.80;;;3.70;;
13197;SDS011;6664;52.514;13.440;2023-03-11T07:29:28;5.50;;;3.90;;
13197;SDS011;6664;52.514;13.440;2023-03-11T07:32:16;4.90;;;3.70;;
13197;SDS011;6664;52.514;13.440;2023-03-11T07:35:04;5.30;;;3.53;;
13197;SDS011;6664;52.514;13.440;2023-03-11T07:37:50;3.77;;;3.47;;
13197;SDS011;6664;52.514;13.440;2023-03-11T07:40:35;3.40;;;3.00;;
13197;SDS011;6664;52.514;13.440;2023-03-11T07:43:22;4.50;;;3.17;;
13197;SDS011;6664;52.514;13.440;2023-03-11T07:46:15;3.63;;;3.20;;
13197;SDS011;6664;52.514;13.440;2023-03-11T07:49:02;3.63;;;3.30;;
13197;SDS011;6664;52.514;13.440;2023-03-11T07:51:51;3.87;;;3.43;;
13197;SDS011;6664;52.514;13.440;2023-03-11T07:54:36;5.90;;;2.97;;
13197;SDS011;6664;52.514;13.440;2023-03-11T07:57:22;4.63;;;3.53;;
13197;SDS011;6664;52.514;13.440;2023-03-11T08:00:08;4.50;;;3.13;;
13197;SDS011;6664;52.514;13.440;2023-03-11T08:02:56;3.30;;;3.00;;
13197;SDS011;6664;52.514;13.440;2023-03-11T08:05:41;4.93;;;3.20;;
13197;SDS011;6664;52.514;13.440;2023-03-11T08:08:29;3.17;;;2.77;;
13197;SDS011;6664;52.514;13.440;2023-03-11T08:11:17;3.33;;;3.03;;
13197;SDS011;6664;52.514;13.440;2023-03-11T08:14:03;3.77;;;2.93;;
13197;SDS011;6664;52.514;13.440;2023-03-11T08:16:51;3.27;;;3.00;;
13197;SDS011;6664;52.514;13.440;2023-03-11T08:19:37;3.73;;;3.17;;
13197;SDS011;6664;52.514;13.440;2023-03-11T08:22:22;3.87;;;3.47;;
13197;SDS011;6664;52.514;13.440;2023-03-11T08:25:08;3.00;;;2.70;;
13197;SDS011;6664;52.514;13.440;2023-03-11T08:27:56;4.07;;;3.30;;
13197;SDS011;6664;52.514;13.440;2023-03-11T08:30:44;4.03;;;3.73;;
13197;SDS011;6664;52.514;13.440;2023-03-11T08:33:29;2.90;;;2.70;;
13197;SDS011;6664;52.514;13.440;2023-03-11T08:36:15;2.73;;;2.53;;
13197;SDS011;6664;52.514;13.440;2023-03-11T08:39:03;2.50;;;2.30;;
13197;SDS011;6664;52.514;13.440;2023-03-11T08:41:49;2.80;;;2.60;;
13197;SDS011;6664;52.514;13.440;2023-03-11T08:44:35;3.60;;;3.30;;
13197;SDS011;6664;52.514;13.440;2023-03-11T08:47:20;3.70;;;2.47;;
13197;SDS011;6664;52.514;13.440;2023-03-11T08:50:12;4.93;;;3.23;;
13197;SDS011;6664;52.514;13.440;2023-03-11T08:53:00;4.60;;;2.83;;
13197;SDS011;6664;52.514;13.440;2023-03-11T08:55:47;2.93;;;2.40;;
13197;SDS011;6664;52.514;13.440;2023-03-11T08:58:35;4.07;;;2.63;;
13197;SDS011;6664;52.514;13.440;2023-03-11T09:01:21;8.90;;;3.10;;
13197;SDS011;6664;52.514;13.440;2023-03-11T09:04:09;2.23;;;2.03;;
13197;SDS011;6664;52.514;13.440;2023-03-11T09:06:55;3.70;;;2.70;;
13197;SDS011;6664;52.514;13.440;2023-03-11T09:09:45;3.03;;;2.83;;
13197;SDS011;6664;52.514;13.440;2023-03-11T09:12:31;3.50;;;2.13;;
13197;SDS011;6664;52.514;13.440;2023-03-11T09:15:17;2.60;;;2.43;;
13197;SDS011;6664;52.514;13.440;2023-03-11T09:18:04;3.37;;;2.17;;
13197;SDS011;6664;52.514;13.440;2023-03-11T09:20:49;3.33;;;2.47;;
13197;SDS011;6664;52.514;13.440;2023-03-11T09:23:35;2.30;;;2.10;;
13197;SDS011;6664;52.514;13.440;2023-03-11T09:26:21;2.47;;;2.27;;
13197;SDS011;6664;52.514;13.440;2023-03-11T09:29:07;2.57;;;2.30;;
13197;SDS011;6664;52.514;13.440;2023-03-11T09:31:54;2.33;;;2.07;;
13197;SDS011;6664;52.514;13.440;2023-03-11T09:34:42;2.67;;;2.47;;
13197;SDS011;6664;52.514;13.440;2023-03-11T09:37:27;3.70;;;2.57;;
13197;SDS011;6664;52.514;13.440;2023-03-11T09:40:15;3.40;;;2.00;;
13197;SDS011;6664;52.514;13.440;2023-03-11T09:46:03;2.27;;;2.07;;
13197;SDS011;6664;52.514;13.440;2023-03-11T09:49:08;2.57;;;2.37;;
13197;SDS011;6664;52.514;13.440;2023-03-11T09:52:24;3.40;;;3.07;;
13197;SDS011;6664;52.514;13.440;2023-03-11T09:55:38;2.30;;;2.10;;
13197;SDS011;6664;52.514;13.440;2023-03-11T09:58:37;2.87;;;2.00;;
13197;SDS011;6664;52.514;13.440;2023-03-11T10:01:42;3.00;;;2.73;;
13197;SDS011;6664;52.514;13.440;2023-03-11T10:04:32;2.60;;;2.10;;
13197;SDS011;6664;52.514;13.440;2023-03-11T10:07:32;5.00;;;2.60;;
13197;SDS011;6664;52.514;13.440;2023-03-11T10:10:21;2.07;;;1.90;;
13197;SDS011;6664;52.514;13.440;2023-03-11T10:19:08;2.80;;;2.60;;
13197;SDS011;6664;52.514;13.440;2023-03-11T10:28:11;2.80;;;2.60;;
13197;SDS011;6664;52.514;13.440;2023-03-11T10:31:24;3.10;;;2.60;;
13197;SDS011;6664;52.514;13.440;2023-03-11T10:34:21;4.30;;;2.30;;
13197;SDS011;6664;52.514;13.440;2023-03-11T10:37:17;2.50;;;2.30;;
13197;SDS011;6664;52.514;13.440;2023-03-11T10:45:58;3.53;;;3.27;;
13197;SDS011;6664;52.514;13.440;2023-03-11T10:48:46;4.27;;;2.60;;
13197;SDS011;6664;52.514;13.440;2023-03-11T10:51:35;2.50;;;2.30;;
13197;SDS011;6664;52.514;13.440;2023-03-11T10:54:25;4.67;;;2.70;;
13197;SDS011;6664;52.514;13.440;2023-03-11T10:57:33;4.53;;;2.40;;
13197;SDS011;6664;52.514;13.440;2023-03-11T11:00:27;2.83;;;2.63;;
13197;SDS011;6664;52.514;13.440;2023-03-11T11:03:20;3.97;;;2.60;;
13197;SDS011;6664;52.514;13.440;2023-03-11T11:06:17;3.70;;;2.67;;
13197;SDS011;6664;52.514;13.440;2023-03-11T11:09:16;3.20;;;3.00;;
13197;SDS011;6664;52.514;13.440;2023-03-11T11:12:09;2.67;;;2.47;;
13197;SDS011;6664;52.514;13.440;2023-03-11T11:15:01;4.37;;;3.30;;
13197;SDS011;6664;52.514;13.440;2023-03-11T11:17:47;3.43;;;3.13;;
13197;SDS011;6664;52.514;13.440;2023-03-11T11:20:52;3.50;;;3.20;;
13197;SDS011;6664;52.514;13.440;2023-03-11T11:23:42;3.10;;;2.80;;
13197;SDS011;6664;52.514;13.440;2023-03-11T11:33:25;3.33;;;3.03;;
13197;SDS011;6664;52.514;13.440;2023-03-11T11:36:27;4.40;;;2.50;;
13197;SDS011;6664;52.514;13.440;2023-03-11T11:39:19;3.23;;;2.90;;
13197;SDS011;6664;52.514;13.440;2023-03-11T11:42:07;5.73;;;3.53;;
13197;SDS011;6664;52.514;13.440;2023-03-11T11:45:03;4.40;;;3.43;;
13197;SDS011;6664;52.514;13.440;2023-03-11T11:47:58;3.40;;;3.17;;
13197;SDS011;6664;52.514;13.440;2023-03-11T11:50:52;6.87;;;3.80;;
13197;SDS011;6664;52.514;13.440;2023-03-11T11:56:47;5.50;;;3.57;;
13197;SDS011;6664;52.514;13.440;2023-03-11T11:59:33;3.47;;;3.17;;
13197;SDS011;6664;52.514;13.440;2023-03-11T12:05:42;5.83;;;3.67;;
13197;SDS011;6664;52.514;13.440;2023-03-11T12:08:56;9.90;;;3.47;;
13197;SDS011;6664;52.514;13.440;2023-03-11T12:12:18;4.57;;;4.03;;
13197;SDS011;6664;52.514;13.440;2023-03-11T12:15:28;7.60;;;3.80;;
13197;SDS011;6664;52.514;13.440;2023-03-11T12:18:20;3.80;;;3.37;;
13197;SDS011;6664;52.514;13.440;2023-03-11T12:25:08;3.13;;;2.90;;
13197;SDS011;6664;52.514;13.440;2023-03-11T12:31:33;3.70;;;3.33;;
13197;SDS011;6664;52.514;13.440;2023-03-11T12:34:23;4.27;;;3.70;;
13197;SDS011;6664;52.514;13.440;2023-03-11T12:37:12;3.30;;;3.00;;
13197;SDS011;6664;52.514;13.440;2023-03-11T12:40:29;3.00;;;2.67;;
13197;SDS011;6664;52.514;13.440;2023-03-11T12:43:25;4.67;;;3.77;;
13197;SDS011;6664;52.514;13.440;2023-03-11T12:46:15;3.90;;;3.60;;
13197;SDS011;6664;52.514;13.440;2023-03-11T12:49:11;4.17;;;3.77;;
13197;SDS011;6664;52.514;13.440;2023-03-11T12:57:49;3.27;;;2.97;;
13197;SDS011;6664;52.514;13.440;2023-03-11T13:00:47;2.97;;;2.73;;
13197;SDS011;6664;52.514;13.440;2023-03-11T13:06:46;6.83;;;3.33;;
13197;SDS011;6664;52.514;13.440;2023-03-11T13:12:52;3.40;;;3.10;;
13197;SDS011;6664;52.514;13.440;2023-03-11T13:15:40;3.67;;;3.33;;
13197;SDS011;6664;52.514;13.440;2023-03-11T13:18:27;4.97;;;3.00;;
13197;SDS011;6664;52.514;13.440;2023-03-11T13:30:37;3.20;;;2.90;;
13197;SDS011;6664;52.514;13.440;2023-03-11T13:33:33;5.17;;;3.03;;
13197;SDS011;6664;52.514;13.440;2023-03-11T13:36:45;3.33;;;3.03;;
13197;SDS011;6664;52.514;13.440;2023-03-11T13:39:44;4.70;;;3.00;;
13197;SDS011;6664;52.514;13.440;2023-03-11T13:42:36;3.30;;;3.03;;
13197;SDS011;6664;52.514;13.440;2023-03-11T13:45:35;3.03;;;2.73;;
13197;SDS011;6664;52.514;13.440;2023-03-11T13:48:25;3.00;;;2.67;;
13197;SDS011;6664;52.514;13.440;2023-03-11T14:00:22;3.23;;;2.37;;
13197;SDS011;6664;52.514;13.440;2023-03-11T14:03:10;2.03;;;1.93;;
13197;SDS011;6664;52.514;13.440;2023-03-11T14:05:59;2.90;;;2.60;;
13197;SDS011;6664;52.514;13.440;2023-03-11T14:08:52;2.40;;;2.20;;
13197;SDS011;6664;52.514;13.440;2023-03-11T14:11:39;2.90;;;2.60;;
13197;SDS011;6664;52.514;13.440;2023-03-11T14:14:39;2.80;;;2.23;;
13197;SDS011;6664;52.514;13.440;2023-03-11T14:17:33;3.07;;;2.60;;
13197;SDS011;6664;52.514;13.440;2023-03-11T14:20:21;3.50;;;2.50;;
13197;SDS011;6664;52.514;13.440;2023-03-11T14:23:11;3.23;;;2.70;;
13197;SDS011;6664;52.514;13.440;2023-03-11T14:26:04;3.90;;;3.17;;
13197;SDS011;6664;52.514;13.440;2023-03-11T14:28:52;2.30;;;2.20;;
13197;SDS011;6664;52.514;13.440;2023-03-11T14:31:40;2.83;;;2.40;;
13197;SDS011;6664;52.514;13.440;2023-03-11T14:34:28;2.43;;;2.23;;
13197;SDS011;6664;52.514;13.440;2023-03-11T14:43:21;1.97;;;1.80;;
13197;SDS011;6664;52.514;13.440;2023-03-11T14:46:07;2.90;;;2.30;;
13197;SDS011;6664;52.514;13.440;2023-03-11T14:48:56;2.70;;;2.13;;
13197;SDS011;6664;52.514;13.440;2023-03-11T14:51:43;2.40;;;2.20;;
13197;SDS011;6664;52.514;13.440;2023-03-11T14:54:30;2.63;;;2.30;;
13197;SDS011;6664;52.514;13.440;2023-03-11T14:57:23;3.30;;;2.20;;
13197;SDS011;6664;52.514;13.440;2023-03-11T15:00:47;2.60;;;2.40;;
13197;SDS011;6664;52.514;13.440;2023-03-11T15:03:57;2.47;;;2.30;;
13197;SDS011;6664;52.514;13.440;2023-03-11T15:06:50;2.37;;;2.17;;
13197;SDS011;6664;52.514;13.440;2023-03-11T15:09:38;5.77;;;1.80;;
13197;SDS011;6664;52.514;13.440;2023-03-11T15:12:29;7.00;;;1.90;;
13197;SDS011;6664;52.514;13.440;2023-03-11T15:18:18;3.00;;;1.90;;
13197;SDS011;6664;52.514;13.440;2023-03-11T15:21:13;2.67;;;2.10;;
13197;SDS011;6664;52.514;13.440;2023-03-11T15:24:00;2.00;;;1.90;;
13197;SDS011;6664;52.514;13.440;2023-03-11T15:27:18;2.10;;;1.90;;
13197;SDS011;6664;52.514;13.440;2023-03-11T15:30:24;2.80;;;2.00;;
13197;SDS011;6664;52.514;13.440;2023-03-11T15:33:21;2.57;;;2.37;;
13197;SDS011;6664;52.514;13.440;2023-03-11T15:36:34;1.90;;;1.80;;
13197;SDS011;6664;52.514;13.440;2023-03-11T15:42:25;1.70;;;1.60;;
13197;SDS011;6664;52.514;13.440;2023-03-11T15:48:01;1.53;;;1.43;;
13197;SDS011;6664;52.514;13.440;2023-03-11T15:53:38;1.50;;;1.40;;
13197;SDS011;6664;52.514;13.440;2023-03-11T15:56:25;1.80;;;1.70;;
13197;SDS011;6664;52.514;13.440;2023-03-11T15:59:12;1.40;;;1.30;;
13197;SDS011;6664;52.514;13.440;2023-03-11T16:02:00;1.87;;;1.73;;
13197;SDS011;6664;52.514;13.440;2023-03-11T16:04:46;1.63;;;1.53;;
13197;SDS011;6664;52.514;13.440;2023-03-11T16:07:34;1.77;;;1.67;;
13197;SDS011;6664;52.514;13.440;2023-03-11T16:10:23;2.70;;;1.87;;
13197;SDS011;6664;52.514;13.440;2023-03-11T16:13:13;1.43;;;1.37;;
13197;SDS011;6664;52.514;13.440;2023-03-11T16:15:59;1.80;;;1.70;;
13197;SDS011;6664;52.514;13.440;2023-03-11T16:18:48;4.30;;;1.47;;
13197;SDS011;6664;52.514;13.440;2023-03-11T16:21:39;1.50;;;1.40;;
13197;SDS011;6664;52.514;13.440;2023-03-11T16:24:29;1.87;;;1.47;;
13197;SDS011;6664;52.514;13.440;2023-03-11T16:27:16;2.20;;;1.60;;
13197;SDS011;6664;52.514;13.440;2023-03-11T16:30:20;3.10;;;1.47;;
13197;SDS011;6664;52.514;13.440;2023-03-11T16:33:07;1.60;;;1.40;;
13197;SDS011;6664;52.514;13.440;2023-03-11T16:35:53;1.63;;;1.43;;
13197;SDS011;6664;52.514;13.440;2023-03-11T16:38:43;4.10;;;1.60;;
13197;SDS011;6664;52.514;13.440;2023-03-11T16:41:40;2.63;;;1.70;;
13197;SDS011;6664;52.514;13.440;2023-03-11T16:44:45;1.07;;;1.07;;
13197;SDS011;6664;52.514;13.440;2023-03-11T16:47:31;1.57;;;1.27;;
13197;SDS011;6664;52.514;13.440;2023-03-11T16:50:17;1.70;;;1.60;;
13197;SDS011;6664;52.514;13.440;2023-03-11T16:53:04;1.63;;;1.53;;
13197;SDS011;6664;52.514;13.440;2023-03-11T16:55:49;2.10;;;1.23;;
13197;SDS011;6664;52.514;13.440;2023-03-11T16:58:35;3.40;;;1.67;;
13197;SDS011;6664;52.514;13.440;2023-03-11T17:01:21;2.07;;;1.50;;
13197;SDS011;6664;52.514;13.440;2023-03-11T17:04:07;3.43;;;1.27;;
13197;SDS011;6664;52.514;13.440;2023-03-11T17:06:53;1.30;;;1.20;;
13197;SDS011;6664;52.514;13.440;2023-03-11T17:09:39;1.60;;;1.50;;
13197;SDS011;6664;52.514;13.440;2023-03-11T17:12:25;2.00;;;1.30;;
13197;SDS011;6664;52.514;13.440;2023-03-11T17:15:15;2.17;;;1.63;;
13197;SDS011;6664;52.514;13.440;2023-03-11T17:18:00;1.20;;;1.20;;
13197;SDS011;6664;52.514;13.440;2023-03-11T17:20:48;1.67;;;1.33;;
13197;SDS011;6664;52.514;13.440;2023-03-11T17:23:33;2.00;;;1.70;;
13197;SDS011;6664;52.514;13.440;2023-03-11T17:26:19;3.23;;;1.50;;
13197;SDS011;6664;52.514;13.440;2023-03-11T17:29:06;1.23;;;1.13;;
13197;SDS011;6664;52.514;13.440;2023-03-11T17:31:52;1.70;;;1.40;;
13197;SDS011;6664;52.514;13.440;2023-03-11T17:34:38;1.97;;;1.37;;
13197;SDS011;6664;52.514;13.440;2023-03-11T17:37:24;1.37;;;1.23;;
13197;SDS011;6664;52.514;13.440;2023-03-11T17:40:12;6.57;;;2.33;;
13197;SDS011;6664;52.514;13.440;2023-03-11T17:42:57;1.30;;;1.30;;
13197;SDS011;6664;52.514;13.440;2023-03-11T17:45:45;1.50;;;1.30;;
13197;SDS011;6664;52.514;13.440;2023-03-11T17:48:30;1.63;;;1.50;;
13197;SDS011;6664;52.514;13.440;2023-03-11T17:51:21;1.70;;;1.60;;
13197;SDS011;6664;52.514;13.440;2023-03-11T17:54:12;1.60;;;1.50;;
13197;SDS011;6664;52.514;13.440;2023-03-11T17:57:04;2.30;;;2.00;;
13197;SDS011;6664;52.514;13.440;2023-03-11T17:59:52;5.60;;;2.10;;
13197;SDS011;6664;52.514;13.440;2023-03-11T18:02:38;1.60;;;1.50;;
13197;SDS011;6664;52.514;13.440;2023-03-11T18:05:23;2.10;;;1.47;;
13197;SDS011;6664;52.514;13.440;2023-03-11T18:08:08;1.60;;;1.33;;
13197;SDS011;6664;52.514;13.440;2023-03-11T18:10:57;2.40;;;1.23;;
13197;SDS011;6664;52.514;13.440;2023-03-11T18:13:46;5.27;;;2.50;;
13197;SDS011;6664;52.514;13.440;2023-03-11T18:16:32;2.97;;;1.40;;
13197;SDS011;6664;52.514;13.440;2023-03-11T18:19:17;1.93;;;1.73;;
13197;SDS011;6664;52.514;13.440;2023-03-11T18:22:03;2.80;;;1.70;;
13197;SDS011;6664;52.514;13.440;2023-03-11T18:24:50;3.87;;;1.73;;
13197;SDS011;6664;52.514;13.440;2023-03-11T18:27:37;3.70;;;1.60;;
13197;SDS011;6664;52.514;13.440;2023-03-11T18:30:22;1.60;;;1.50;;
13197;SDS011;6664;52.514;13.440;2023-03-11T18:33:08;3.40;;;1.17;;
13197;SDS011;6664;52.514;13.440;2023-03-11T18:35:53;4.10;;;1.60;;